createdAt,value
2019-02-09T00:01:26.519Z,7.30
2019-02-09T00:03:57.232Z,7.30
2019-02-09T00:06:27.862Z,7.43
2019-02-09T00:08:57.371Z,8.00
2019-02-09T00:11:26.992Z,7.93
2019-02-09T00:13:56.529Z,8.37
2019-02-09T00:16:28.848Z,7.07
2019-02-09T00:18:58.266Z,7.40
2019-02-09T00:21:30.884Z,7.50
2019-02-09T00:24:00.900Z,7.70
2019-02-09T00:29:20.493Z,8.03
2019-02-09T00:31:50.040Z,8.60
2019-02-09T00:34:19.682Z,7.73
2019-02-09T00:36:49.319Z,7.83
2019-02-09T00:39:18.755Z,8.03
2019-02-09T00:41:48.262Z,8.07
2019-02-09T00:44:17.764Z,9.03
2019-02-09T00:46:47.272Z,8.00
2019-02-09T00:49:16.849Z,7.97
2019-02-09T00:51:46.440Z,7.57
2019-02-09T00:54:15.988Z,7.83
2019-02-09T00:56:45.547Z,7.87
2019-02-09T00:59:15.082Z,6.80
2019-02-09T01:01:45.120Z,7.30
2019-02-09T01:04:15.064Z,7.30
2019-02-09T01:06:48.073Z,7.63
2019-02-09T01:09:18.405Z,6.93
2019-02-09T01:11:48.642Z,7.13
2019-02-09T01:14:18.647Z,8.43
2019-02-09T01:16:48.575Z,7.60
2019-02-09T01:19:26.564Z,6.97
2019-02-09T01:21:56.487Z,7.70
2019-02-09T01:24:26.778Z,6.67
2019-02-09T01:26:56.920Z,7.83
2019-02-09T01:29:26.822Z,6.70
2019-02-09T01:31:57.291Z,7.47
2019-02-09T01:34:27.369Z,7.47
2019-02-09T01:36:57.138Z,7.07
2019-02-09T01:39:27.373Z,6.80
2019-02-09T01:41:57.390Z,5.80
2019-02-09T01:44:27.230Z,6.30
2019-02-09T01:46:57.151Z,6.57
2019-02-09T01:49:27.252Z,6.27
2019-02-09T01:51:57.716Z,7.37
2019-02-09T01:54:27.271Z,7.47
2019-02-09T01:56:56.879Z,7.03
2019-02-09T01:59:26.379Z,7.10
2019-02-09T02:01:56.414Z,7.07
2019-02-09T02:04:25.968Z,7.57
2019-02-09T02:06:55.469Z,7.57
2019-02-09T02:09:25.149Z,7.40
2019-02-09T02:11:54.704Z,7.80
2019-02-09T02:14:24.211Z,8.17
2019-02-09T02:16:53.741Z,8.17
2019-02-09T02:19:23.383Z,7.43
2019-02-09T02:21:52.878Z,8.10
2019-02-09T02:24:22.372Z,7.50
2019-02-09T02:26:51.930Z,7.63
2019-02-09T02:29:21.395Z,7.57
2019-02-09T02:31:50.915Z,7.10
2019-02-09T02:34:20.416Z,7.80
2019-02-09T02:36:49.940Z,8.13
2019-02-09T02:39:19.438Z,7.30
2019-02-09T02:41:50.652Z,7.50
2019-02-09T02:44:20.213Z,7.37
2019-02-09T02:46:49.767Z,7.77
2019-02-09T02:49:19.256Z,7.33
2019-02-09T02:51:48.778Z,7.03
2019-02-09T02:54:18.378Z,7.30
2019-02-09T02:56:47.879Z,7.07
2019-02-09T02:59:17.393Z,7.13
2019-02-09T03:01:46.909Z,7.33
2019-02-09T03:04:16.477Z,7.27
2019-02-09T03:06:47.853Z,7.50
2019-02-09T03:09:17.303Z,6.60
2019-02-09T03:11:46.909Z,7.03
2019-02-09T03:14:16.422Z,6.80
2019-02-09T03:16:45.954Z,7.07
2019-02-09T03:19:15.450Z,6.87
2019-02-09T03:21:44.943Z,6.77
2019-02-09T03:24:14.427Z,7.10
2019-02-09T03:26:43.910Z,7.73
2019-02-09T03:29:13.428Z,7.50
2019-02-09T03:31:42.923Z,7.10
2019-02-09T03:34:12.437Z,6.93
2019-02-09T03:36:41.975Z,7.33
2019-02-09T03:39:11.491Z,7.40
2019-02-09T03:41:40.996Z,6.97
2019-02-09T03:44:10.594Z,7.37
2019-02-09T03:46:40.091Z,7.07
2019-02-09T03:49:09.637Z,6.70
2019-02-09T03:51:39.208Z,7.80
2019-02-09T03:54:08.697Z,7.73
2019-02-09T03:56:38.251Z,7.47
2019-02-09T03:59:07.825Z,7.57
2019-02-09T04:01:37.346Z,8.03
2019-02-09T04:04:07.210Z,7.47
2019-02-09T04:06:36.823Z,7.47
2019-02-09T04:09:08.859Z,7.73
2019-02-09T04:11:38.381Z,7.53
2019-02-09T04:14:08.007Z,7.10
2019-02-09T04:16:37.499Z,7.37
2019-02-09T04:19:07.078Z,7.57
2019-02-09T04:21:36.561Z,7.13
2019-02-09T04:24:06.149Z,7.70
2019-02-09T04:26:35.669Z,7.07
2019-02-09T04:29:05.161Z,7.40
2019-02-09T04:31:34.651Z,7.73
2019-02-09T04:34:04.378Z,7.10
2019-02-09T04:36:33.904Z,8.13
2019-02-09T04:39:05.047Z,7.43
2019-02-09T04:41:34.590Z,7.93
2019-02-09T04:44:04.295Z,7.63
2019-02-09T04:46:33.769Z,7.50
2019-02-09T04:49:03.346Z,8.03
2019-02-09T04:51:32.926Z,7.40
2019-02-09T04:54:02.371Z,7.87
2019-02-09T04:56:31.906Z,7.90
2019-02-09T04:59:01.554Z,7.93
2019-02-09T05:01:31.115Z,7.70
2019-02-09T05:04:00.657Z,7.30
2019-02-09T05:06:30.227Z,7.97
2019-02-09T05:08:59.702Z,12.17
2019-02-09T05:11:29.190Z,9.07
2019-02-09T05:13:58.718Z,10.90
2019-02-09T05:16:28.312Z,8.90
2019-02-09T05:18:57.869Z,8.27
2019-02-09T05:21:27.362Z,8.23
2019-02-09T05:23:56.842Z,7.67
2019-02-09T05:26:26.322Z,8.23
2019-02-09T05:28:55.815Z,7.27
2019-02-09T05:31:25.353Z,8.43
2019-02-09T05:33:54.889Z,8.00
2019-02-09T05:36:24.358Z,7.33
2019-02-09T05:38:53.859Z,8.60
2019-02-09T05:41:23.388Z,8.80
2019-02-09T05:43:52.923Z,9.03
2019-02-09T05:46:22.481Z,8.80
2019-02-09T05:48:52.099Z,8.90
2019-02-09T05:51:21.613Z,8.77
2019-02-09T05:53:51.121Z,7.53
2019-02-09T05:56:20.643Z,8.17
2019-02-09T05:58:50.119Z,7.90
2019-02-09T06:01:19.787Z,7.90
2019-02-09T06:03:49.378Z,7.77
2019-02-09T06:06:18.917Z,9.37
2019-02-09T06:08:48.457Z,9.93
2019-02-09T06:11:19.282Z,10.50
2019-02-09T06:13:48.903Z,9.50
2019-02-09T06:16:18.473Z,8.93
2019-02-09T06:18:47.992Z,9.47
2019-02-09T06:21:17.604Z,8.93
2019-02-09T06:23:47.093Z,9.13
2019-02-09T06:26:16.636Z,7.93
2019-02-09T06:28:46.209Z,8.53
2019-02-09T06:31:15.672Z,8.33
2019-02-09T06:33:45.341Z,8.40
2019-02-09T06:36:14.840Z,8.90
2019-02-09T06:38:44.380Z,8.53
2019-02-09T06:41:13.926Z,8.93
2019-02-09T06:43:43.491Z,9.60
2019-02-09T06:46:13.073Z,8.63
2019-02-09T06:48:42.577Z,7.63
2019-02-09T06:51:12.081Z,7.80
2019-02-09T06:53:41.633Z,7.70
2019-02-09T06:56:11.161Z,8.23
2019-02-09T06:58:40.724Z,8.83
2019-02-09T07:01:10.184Z,8.33
2019-02-09T07:03:39.680Z,8.00
2019-02-09T07:06:09.238Z,7.90
2019-02-09T07:08:38.772Z,7.13
2019-02-09T07:11:08.455Z,7.57
2019-02-09T07:13:37.954Z,8.63
2019-02-09T07:16:07.547Z,9.40
2019-02-09T07:18:37.064Z,7.20
2019-02-09T07:21:06.782Z,8.77
2019-02-09T07:23:36.348Z,8.30
2019-02-09T07:26:05.966Z,8.87
2019-02-09T07:28:35.515Z,6.10
2019-02-09T07:31:05.533Z,9.17
2019-02-09T07:33:35.105Z,8.27
2019-02-09T07:36:04.699Z,10.03
2019-02-09T07:38:34.253Z,10.23
2019-02-09T07:41:03.874Z,11.40
2019-02-09T07:43:33.452Z,15.93
2019-02-09T07:46:03.062Z,9.57
2019-02-09T07:48:32.709Z,8.30
2019-02-09T07:51:02.170Z,11.57
2019-02-09T07:53:31.807Z,15.43
2019-02-09T07:56:01.292Z,13.97
2019-02-09T07:58:30.756Z,13.30
2019-02-09T08:01:00.423Z,13.33
2019-02-09T08:03:29.889Z,12.30
2019-02-09T08:05:59.523Z,12.30
2019-02-09T08:08:29.058Z,11.00
2019-02-09T08:10:58.594Z,9.70
2019-02-09T08:13:28.192Z,11.20
2019-02-09T08:15:57.758Z,10.30
2019-02-09T08:18:27.413Z,8.93
2019-02-09T08:20:56.926Z,8.07
2019-02-09T08:23:26.565Z,8.60
2019-02-09T08:25:56.076Z,8.57
2019-02-09T08:28:25.617Z,10.93
2019-02-09T08:30:55.329Z,9.40
2019-02-09T08:33:24.849Z,9.50
2019-02-09T08:35:54.374Z,14.13
2019-02-09T08:38:23.875Z,10.77
2019-02-09T08:40:53.357Z,9.77
2019-02-09T08:43:23.046Z,10.40
2019-02-09T08:45:52.617Z,10.73
2019-02-09T08:48:22.172Z,9.73
2019-02-09T08:50:55.928Z,10.47
2019-02-09T08:53:25.475Z,11.17
2019-02-09T08:55:55.116Z,11.37
2019-02-09T08:58:24.737Z,11.67
2019-02-09T09:00:54.396Z,11.20
2019-02-09T09:03:23.887Z,11.77
2019-02-09T09:05:53.596Z,12.23
2019-02-09T09:08:23.093Z,12.03
2019-02-09T09:10:52.679Z,12.37
2019-02-09T09:13:22.754Z,13.37
2019-02-09T09:15:54.468Z,13.90
2019-02-09T09:18:24.040Z,14.50
2019-02-09T09:20:56.031Z,14.70
2019-02-09T09:23:25.595Z,14.00
2019-02-09T09:25:55.147Z,14.47
2019-02-09T09:28:24.638Z,13.80
2019-02-09T09:30:54.130Z,14.60
2019-02-09T09:33:23.671Z,14.17
2019-02-09T09:35:53.447Z,14.67
2019-02-09T09:38:23.107Z,14.70
2019-02-09T09:40:52.535Z,14.40
2019-02-09T09:43:22.067Z,14.37
2019-02-09T09:45:51.631Z,15.50
2019-02-09T09:48:21.644Z,16.20
2019-02-09T09:50:51.224Z,16.27
2019-02-09T09:53:20.759Z,16.70
2019-02-09T09:55:50.384Z,16.40
2019-02-09T09:58:19.999Z,16.23
2019-02-09T10:00:49.568Z,16.73
2019-02-09T10:03:21.052Z,16.03
2019-02-09T10:05:50.541Z,16.73
2019-02-09T10:08:21.233Z,17.63
2019-02-09T10:10:54.134Z,16.53
2019-02-09T10:13:23.659Z,17.20
2019-02-09T10:15:53.147Z,17.40
2019-02-09T10:18:22.695Z,17.37
2019-02-09T10:20:52.265Z,17.03
2019-02-09T10:23:21.810Z,16.67
2019-02-09T10:25:51.363Z,16.83
2019-02-09T10:28:20.895Z,16.77
2019-02-09T10:30:50.371Z,17.90
2019-02-09T10:33:20.004Z,17.67
2019-02-09T10:35:49.524Z,18.33
2019-02-09T10:38:19.013Z,17.87
2019-02-09T10:40:48.593Z,16.80
2019-02-09T10:43:21.538Z,18.00
2019-02-09T10:45:51.242Z,18.30
2019-02-09T10:48:21.310Z,17.73
2019-02-09T10:50:50.923Z,18.93
2019-02-09T10:53:20.473Z,18.50
2019-02-09T10:55:50.060Z,19.17
2019-02-09T10:58:19.627Z,19.10
2019-02-09T11:00:52.374Z,17.97
2019-02-09T11:03:22.000Z,17.80
2019-02-09T11:05:51.498Z,17.57
2019-02-09T11:08:21.199Z,18.07
2019-02-09T11:10:50.917Z,18.17
2019-02-09T11:13:20.595Z,17.53
2019-02-09T11:15:50.139Z,17.07
2019-02-09T11:18:19.802Z,18.17
2019-02-09T11:20:49.299Z,17.27
2019-02-09T11:23:18.869Z,17.90
2019-02-09T11:25:48.413Z,17.47
2019-02-09T11:28:18.017Z,18.97
2019-02-09T11:30:47.579Z,18.43
2019-02-09T11:33:17.157Z,18.10
2019-02-09T11:35:46.825Z,19.30
2019-02-09T11:38:16.466Z,18.53
2019-02-09T11:40:46.006Z,19.43
2019-02-09T11:43:15.507Z,19.37
2019-02-09T11:45:45.049Z,19.33
2019-02-09T11:48:14.650Z,18.43
2019-02-09T11:50:44.216Z,19.10
2019-02-09T11:53:13.851Z,19.23
2019-02-09T11:55:43.438Z,18.67
2019-02-09T11:58:13.028Z,18.03
2019-02-09T12:00:45.569Z,19.27
2019-02-09T12:03:16.331Z,19.17
2019-02-09T12:05:46.049Z,19.10
2019-02-09T12:08:15.590Z,18.30
2019-02-09T12:10:45.185Z,20.10
2019-02-09T12:13:14.809Z,18.57
2019-02-09T12:15:44.520Z,19.40
2019-02-09T12:18:14.185Z,18.40
2019-02-09T12:20:43.760Z,18.90
2019-02-09T12:23:13.301Z,20.57
2019-02-09T12:25:42.898Z,20.43
2019-02-09T12:28:12.583Z,20.27
2019-02-09T12:30:42.202Z,20.03
2019-02-09T12:33:11.812Z,19.90
2019-02-09T12:35:41.715Z,19.60
2019-02-09T12:38:11.990Z,20.50
2019-02-09T12:40:41.581Z,19.83
2019-02-09T12:43:11.135Z,19.90
2019-02-09T12:45:40.749Z,18.67
2019-02-09T12:48:11.015Z,19.30
2019-02-09T12:50:40.890Z,17.97
2019-02-09T12:53:13.031Z,19.37
2019-02-09T12:55:42.860Z,19.23
2019-02-09T12:58:12.435Z,20.03
2019-02-09T13:00:42.084Z,21.30
2019-02-09T13:03:17.446Z,18.80
2019-02-09T13:05:47.107Z,20.33
2019-02-09T13:08:16.668Z,19.93
2019-02-09T13:10:46.332Z,19.97
2019-02-09T13:13:15.938Z,21.47
2019-02-09T13:15:45.489Z,21.83
2019-02-09T13:18:15.050Z,23.17
2019-02-09T13:20:44.586Z,21.77
2019-02-09T13:23:15.881Z,22.53
2019-02-09T13:25:45.596Z,20.80
2019-02-09T13:28:15.266Z,21.13
2019-02-09T13:30:45.005Z,22.00
2019-02-09T13:33:14.490Z,22.37
2019-02-09T13:35:44.079Z,22.27
2019-02-09T13:38:13.629Z,22.30
2019-02-09T13:40:43.573Z,21.07
2019-02-09T13:43:13.363Z,22.20
2019-02-09T13:45:48.810Z,21.37
2019-02-09T13:48:18.463Z,20.60
2019-02-09T13:50:48.056Z,20.30
2019-02-09T13:53:18.204Z,21.10
2019-02-09T13:55:47.744Z,21.87
2019-02-09T13:58:17.359Z,21.53
2019-02-09T14:00:46.882Z,26.77
2019-02-09T14:03:16.432Z,23.00
2019-02-09T14:05:45.973Z,22.80
2019-02-09T14:08:15.512Z,22.77
2019-02-09T14:10:45.040Z,23.30
2019-02-09T14:13:15.002Z,21.37
2019-02-09T14:15:44.631Z,23.00
2019-02-09T14:18:14.173Z,21.73
2019-02-09T14:20:43.718Z,23.77
2019-02-09T14:23:13.252Z,22.57
2019-02-09T14:25:42.890Z,21.57
2019-02-09T14:28:12.465Z,23.17
2019-02-09T14:30:42.298Z,23.37
2019-02-09T14:33:12.093Z,21.83
2019-02-09T14:35:42.869Z,22.83
2019-02-09T14:38:12.428Z,21.00
2019-02-09T14:40:42.088Z,22.90
2019-02-09T14:43:12.064Z,22.53
2019-02-09T14:45:43.520Z,22.93
2019-02-09T14:48:13.214Z,21.67
2019-02-09T14:50:42.793Z,20.77
2019-02-09T14:53:12.745Z,20.10
2019-02-09T14:55:42.356Z,20.47
2019-02-09T14:58:11.864Z,19.97
2019-02-09T15:00:46.861Z,20.03
2019-02-09T15:03:16.697Z,20.07
2019-02-09T15:05:46.358Z,19.23
2019-02-09T15:08:15.846Z,18.83
2019-02-09T15:10:45.394Z,20.53
2019-02-09T15:13:15.705Z,19.27
2019-02-09T15:16:13.068Z,19.67
2019-02-09T15:18:42.612Z,21.40
2019-02-09T15:21:12.183Z,21.87
2019-02-09T15:23:41.796Z,21.43
2019-02-09T15:26:12.690Z,24.97
2019-02-09T15:28:43.014Z,23.53
2019-02-09T15:31:12.647Z,24.13
2019-02-09T15:33:42.235Z,27.07
2019-02-09T15:36:11.789Z,25.80
2019-02-09T15:38:41.330Z,25.27
2019-02-09T15:41:10.944Z,27.17
2019-02-09T15:43:40.461Z,28.63
2019-02-09T15:46:10.091Z,27.17
2019-02-09T15:48:39.622Z,28.60
2019-02-09T15:51:09.143Z,29.30
2019-02-09T15:53:38.716Z,29.93
2019-02-09T15:56:08.269Z,28.23
2019-02-09T15:58:37.802Z,28.40
2019-02-09T16:01:07.318Z,27.43
2019-02-09T16:03:36.892Z,27.47
2019-02-09T16:06:06.459Z,27.20
2019-02-09T16:08:36.002Z,27.20
2019-02-09T16:11:05.587Z,27.50
2019-02-09T16:13:35.090Z,27.03
2019-02-09T16:16:04.886Z,27.97
2019-02-09T16:18:34.429Z,27.80
2019-02-09T16:21:04.094Z,28.80
2019-02-09T16:23:33.561Z,28.80
2019-02-09T16:26:03.111Z,31.13
2019-02-09T16:28:32.651Z,29.43
2019-02-09T16:31:02.344Z,30.87
2019-02-09T16:33:31.892Z,32.13
2019-02-09T16:36:01.387Z,33.07
2019-02-09T16:38:30.940Z,34.23
2019-02-09T16:41:00.471Z,32.00
2019-02-09T16:43:30.062Z,31.50
2019-02-09T16:45:59.684Z,32.97
2019-02-09T16:48:29.269Z,34.43
2019-02-09T16:50:58.804Z,33.77
2019-02-09T16:53:28.391Z,33.10
2019-02-09T16:55:57.984Z,33.43
2019-02-09T16:58:27.606Z,34.87
2019-02-09T17:00:57.208Z,35.00
2019-02-09T17:03:26.826Z,32.23
2019-02-09T17:05:56.375Z,34.10
2019-02-09T17:08:25.874Z,34.47
2019-02-09T17:10:55.505Z,32.43
2019-02-09T17:13:25.001Z,30.90
2019-02-09T17:15:54.626Z,31.17
2019-02-09T17:18:24.130Z,30.47
2019-02-09T17:20:53.697Z,29.23
2019-02-09T17:23:23.315Z,28.93
2019-02-09T17:25:52.775Z,30.03
2019-02-09T17:28:22.333Z,29.30
2019-02-09T17:30:51.883Z,28.47
2019-02-09T17:33:21.412Z,30.03
2019-02-09T17:35:50.938Z,29.27
2019-02-09T17:38:20.397Z,31.70
2019-02-09T17:40:49.916Z,32.17
2019-02-09T17:43:19.399Z,33.00
2019-02-09T17:46:05.764Z,33.07
2019-02-09T17:48:35.363Z,31.03
2019-02-09T17:51:05.354Z,32.80
2019-02-09T17:53:35.043Z,31.73
2019-02-09T17:56:05.036Z,33.43
2019-02-09T17:58:37.837Z,34.10
2019-02-09T18:01:11.341Z,33.07
2019-02-09T18:03:40.929Z,33.80
2019-02-09T18:06:10.556Z,34.43
2019-02-09T18:08:40.130Z,34.67
2019-02-09T18:11:09.681Z,33.97
2019-02-09T18:13:39.156Z,36.43
2019-02-09T18:16:08.741Z,36.13
2019-02-09T18:18:38.261Z,36.87
2019-02-09T18:21:07.894Z,37.17
2019-02-09T18:23:37.561Z,38.17
2019-02-09T18:26:07.206Z,37.50
2019-02-09T18:28:36.765Z,36.80
2019-02-09T18:31:06.644Z,37.13
2019-02-09T18:33:36.208Z,39.67
2019-02-09T18:36:05.916Z,37.60
2019-02-09T18:38:35.449Z,36.53
2019-02-09T18:41:05.465Z,37.80
2019-02-09T18:43:35.020Z,36.47
2019-02-09T18:46:04.669Z,34.87
2019-02-09T18:48:34.328Z,36.13
2019-02-09T18:51:03.921Z,36.00
2019-02-09T18:53:33.572Z,37.30
2019-02-09T18:56:03.360Z,36.20
2019-02-09T18:58:32.982Z,36.77
2019-02-09T19:01:02.716Z,40.63
2019-02-09T19:03:32.307Z,42.60
2019-02-09T19:06:01.898Z,44.47
2019-02-09T19:08:31.504Z,40.93
2019-02-09T19:11:01.101Z,41.73
2019-02-09T19:13:30.712Z,40.07
2019-02-09T19:16:00.199Z,40.57
2019-02-09T19:18:29.720Z,41.47
2019-02-09T19:21:00.799Z,39.83
2019-02-09T19:23:30.376Z,40.03
2019-02-09T19:26:00.001Z,41.20
2019-02-09T19:28:29.575Z,42.67
2019-02-09T19:30:59.108Z,40.30
2019-02-09T19:33:28.689Z,42.47
2019-02-09T19:35:58.233Z,38.60
2019-02-09T19:38:27.786Z,40.70
2019-02-09T19:40:57.302Z,39.57
2019-02-09T19:43:26.939Z,37.67
2019-02-09T19:45:56.469Z,38.33
2019-02-09T19:48:26.011Z,37.47
2019-02-09T19:50:55.647Z,39.27
2019-02-09T19:53:25.168Z,36.90
2019-02-09T19:55:54.712Z,38.30
2019-02-09T19:58:24.223Z,38.03
2019-02-09T20:00:53.966Z,40.87
2019-02-09T20:03:23.517Z,37.47
2019-02-09T20:05:53.020Z,36.23
2019-02-09T20:08:22.659Z,35.80
2019-02-09T20:10:52.218Z,38.13
2019-02-09T20:13:21.758Z,38.03
2019-02-09T20:15:51.225Z,41.13
2019-02-09T20:18:20.713Z,38.47
2019-02-09T20:20:50.181Z,38.43
2019-02-09T20:23:19.737Z,38.33
2019-02-09T20:25:49.293Z,36.03
2019-02-09T20:28:18.964Z,37.73
2019-02-09T20:30:48.485Z,37.50
2019-02-09T20:33:18.087Z,37.40
2019-02-09T20:35:47.587Z,39.03
2019-02-09T20:38:17.274Z,40.70
2019-02-09T20:40:49.939Z,41.50
2019-02-09T20:43:20.726Z,41.97
2019-02-09T20:45:50.685Z,41.53
2019-02-09T20:48:20.352Z,43.80
2019-02-09T20:50:49.902Z,43.83
2019-02-09T20:53:19.429Z,44.33
2019-02-09T20:55:48.973Z,42.97
2019-02-09T20:58:18.433Z,42.47
2019-02-09T21:00:48.019Z,42.53
2019-02-09T21:03:17.610Z,42.60
2019-02-09T21:05:47.095Z,43.50
2019-02-09T21:08:16.739Z,39.03
2019-02-09T21:10:46.285Z,47.23
2019-02-09T21:13:15.793Z,42.10
2019-02-09T21:15:45.315Z,39.47
2019-02-09T21:18:14.893Z,40.97
2019-02-09T21:20:44.376Z,42.27
2019-02-09T21:23:14.007Z,42.47
2019-02-09T21:25:44.307Z,42.47
2019-02-09T21:28:14.135Z,40.73
2019-02-09T21:30:43.751Z,39.37
2019-02-09T21:33:13.760Z,40.10
2019-02-09T21:35:44.373Z,42.47
2019-02-09T21:38:14.287Z,43.37
2019-02-09T21:40:43.853Z,40.97
2019-02-09T21:43:13.892Z,39.90
2019-02-09T21:45:45.433Z,41.07
2019-02-09T21:48:14.713Z,46.37
2019-02-09T21:50:44.271Z,47.77
2019-02-09T21:53:13.825Z,46.80
2019-02-09T21:55:43.364Z,46.87
2019-02-09T21:58:12.879Z,47.00
2019-02-09T22:00:43.583Z,45.80
2019-02-09T22:03:13.752Z,48.37
2019-02-09T22:05:43.405Z,46.97
2019-02-09T22:08:19.601Z,48.53
2019-02-09T22:10:46.457Z,42.73
2019-02-09T22:13:16.016Z,43.30
2019-02-09T22:15:45.679Z,47.70
2019-02-09T22:18:15.357Z,44.90
2019-02-09T22:20:52.310Z,47.57
2019-02-09T22:23:16.230Z,46.33
2019-02-09T22:25:45.816Z,43.60
2019-02-09T22:28:18.729Z,44.00
2019-02-09T22:30:48.311Z,44.33
2019-02-09T22:33:24.469Z,43.30
2019-02-09T22:35:49.147Z,43.07
2019-02-09T22:38:18.655Z,43.23
2019-02-09T22:40:48.273Z,43.37
2019-02-09T22:43:17.861Z,43.80
2019-02-09T22:45:47.415Z,44.47
2019-02-09T22:48:16.991Z,42.13
2019-02-09T22:50:47.436Z,44.60
2019-02-09T22:53:17.362Z,40.83
2019-02-09T22:55:47.499Z,42.50
2019-02-09T22:58:17.488Z,39.93
2019-02-09T23:01:37.032Z,35.73
2019-02-09T23:04:42.545Z,38.57
2019-02-09T23:07:17.797Z,38.33
2019-02-09T23:09:47.428Z,34.23
2019-02-09T23:12:16.993Z,35.90
2019-02-09T23:14:46.475Z,36.40
2019-02-09T23:17:16.044Z,38.23
2019-02-09T23:19:45.661Z,39.70
2019-02-09T23:22:15.202Z,35.97
2019-02-09T23:24:46.004Z,38.07
2019-02-09T23:27:15.634Z,37.47
2019-02-09T23:29:45.190Z,35.30
2019-02-09T23:32:14.680Z,35.73
2019-02-09T23:34:44.311Z,35.80
2019-02-09T23:37:13.824Z,34.57
2019-02-09T23:39:43.338Z,34.90
2019-02-09T23:42:12.906Z,34.37
2019-02-09T23:44:42.461Z,35.17
2019-02-09T23:47:11.953Z,35.40
2019-02-09T23:49:41.532Z,35.97
2019-02-09T23:52:11.149Z,36.73
2019-02-09T23:54:40.644Z,35.93
2019-02-09T23:57:10.157Z,37.40
2019-02-09T23:59:39.699Z,34.57
